Terminal Aerodrome Forecast
Issued by NWS

Home | Current Version | Previous Version | Text Only | Print | Product List | Glossary On
Versions: 1 2 3 4 5 6 7 8 9 10 11 12 13 14
686
FTUS42 TJSJ 052347
TAFJBQ
TAF
TJBQ 052347Z 0600/0624 VRB05KT P6SM VCSH FEW030
     FM061400 03010KT P6SM SCT030 SCT040
     FM062300 07008KT P6SM FEW030
      AMD NOT SKED 0602/0611=

USA.gov is the U.S. government's official web portal to all federal, state and local government web resources and services.